Time;durP1;ratioP1;P1;durP2;ratioP2;P2;SDS_P1;SDS_P2;PMS_P1;PMS_P2;Temp;Humidity;BMP_temperature;BMP_pressure;BME280_temperature;BME280_humidity;BME280_pressure;Samples;Min_cycle;Max_cycle;Signal;HPM_P1;HPM_P2
2022/03/22 00:01:36;;;;;;;6.72;3.78;;;10.80;34.20;;;;;;2280279;56;21129;-64
2022/03/22 00:04:08;;;;;;;5.90;3.20;;;10.70;34.30;;;;;;2254137;56;21056;-65
2022/03/22 00:06:35;;;;;;;7.65;3.67;;;10.60;34.40;;;;;;2259646;56;20986;-65
2022/03/22 00:09:02;;;;;;;6.35;3.03;;;10.60;34.50;;;;;;2279804;56;20970;-64
2022/03/22 00:11:29;;;;;;;6.40;3.70;;;10.50;34.50;;;;;;2254515;55;21030;-62
2022/03/22 00:13:55;;;;;;;7.70;3.60;;;10.40;34.50;;;;;;2248490;56;21036;-65
2022/03/22 00:16:22;;;;;;;7.30;3.50;;;10.30;34.60;;;;;;2290367;55;21014;-63
2022/03/22 00:19:34;;;;;;;5.30;2.90;;;10.20;34.60;;;;;;2280533;56;20990;-65
2022/03/22 00:22:02;;;;;;;6.50;3.30;;;10.10;34.60;;;;;;2305013;55;20998;-65
2022/03/22 00:24:29;;;;;;;8.70;3.58;;;10.00;34.70;;;;;;2305569;55;21257;-65
2022/03/22 00:26:55;;;;;;;8.15;3.87;;;10.00;34.90;;;;;;2278842;56;21002;-63
2022/03/22 00:29:22;;;;;;;8.35;4.00;;;9.90;35.70;;;;;;2258448;56;21036;-63
2022/03/22 00:31:51;;;;;;;7.22;3.60;;;9.80;35.80;;;;;;2277670;56;20977;-64
2022/03/22 00:34:17;;;;;;;7.35;3.60;;;9.70;35.90;;;;;;2285256;55;20998;-64
2022/03/22 00:36:45;;;;;;;7.78;3.60;;;9.70;36.10;;;;;;2254216;56;20964;-63
2022/03/22 00:39:11;;;;;;;7.45;4.32;;;9.50;36.00;;;;;;2279828;56;20974;-65
2022/03/22 00:41:41;;;;;;;7.95;3.75;;;9.40;36.10;;;;;;2304055;55;21376;-63
2022/03/22 00:44:08;;;;;;;6.55;3.70;;;9.40;36.30;;;;;;2280349;56;20978;-64
2022/03/22 00:46:36;;;;;;;7.78;3.60;;;9.30;36.40;;;;;;2280166;56;21634;-65
2022/03/22 00:49:03;;;;;;;6.05;3.62;;;9.20;36.40;;;;;;2261892;56;21053;-64
2022/03/22 00:51:30;;;;;;;7.07;3.70;;;9.10;36.50;;;;;;2252683;56;21074;-66
2022/03/22 00:54:02;;;;;;;5.97;3.40;;;9.10;36.60;;;;;;2267368;56;22498;-65
2022/03/22 00:56:30;;;;;;;5.37;3.00;;;9.00;36.60;;;;;;2234152;56;21647;-63
2022/03/22 01:01:42;;;;;;;7.03;4.28;;;8.90;36.60;;;;;;2277273;55;21068;-64
2022/03/22 01:04:09;;;;;;;7.78;4.10;;;8.80;36.60;;;;;;2253504;56;21086;-66
2022/03/22 01:06:38;;;;;;;6.57;3.53;;;8.70;36.60;;;;;;2231096;56;20982;-65
2022/03/22 01:09:04;;;;;;;5.78;3.37;;;8.70;36.80;;;;;;2254423;56;21020;-64
2022/03/22 01:11:31;;;;;;;7.78;3.62;;;8.60;36.80;;;;;;2251955;56;20970;-64
2022/03/22 01:13:57;;;;;;;7.35;3.50;;;8.50;36.80;;;;;;2251952;56;20965;-63
2022/03/22 01:16:25;;;;;;;6.15;3.30;;;8.50;37.00;;;;;;2295899;55;20969;-64
2022/03/22 01:18:51;;;;;;;7.50;3.72;;;8.40;37.00;;;;;;2254698;57;21040;-65
2022/03/22 01:21:18;;;;;;;9.23;3.75;;;8.30;37.10;;;;;;2257653;55;21012;-62
2022/03/22 01:23:44;;;;;;;8.43;4.12;;;8.20;37.10;;;;;;2260585;56;21033;-63
2022/03/22 01:26:11;;;;;;;5.97;3.40;;;8.20;37.20;;;;;;2254042;56;21013;-64
2022/03/22 01:28:37;;;;;;;6.65;3.85;;;8.10;37.30;;;;;;2251033;56;21824;-64
2022/03/22 01:31:05;;;;;;;8.10;3.65;;;8.00;37.30;;;;;;2254780;56;20997;-63
2022/03/22 01:33:32;;;;;;;8.25;3.75;;;8.00;37.60;;;;;;2298063;55;20994;-62
2022/03/22 01:35:58;;;;;;;7.87;3.95;;;7.90;37.60;;;;;;2234747;56;21043;-65
2022/03/22 01:38:25;;;;;;;6.68;3.75;;;7.90;37.70;;;;;;2230663;56;21043;-65
2022/03/22 01:40:52;;;;;;;7.47;3.60;;;7.80;37.60;;;;;;2249153;56;20936;-64
2022/03/22 01:43:18;;;;;;;8.13;3.92;;;7.80;37.80;;;;;;2276829;55;21100;-64
2022/03/22 01:45:46;;;;;;;6.70;3.80;;;7.70;37.70;;;;;;2237986;56;21759;-64
2022/03/22 01:48:14;;;;;;;6.85;3.95;;;7.70;37.80;;;;;;2246070;56;21052;-64
2022/03/22 01:50:41;;;;;;;7.20;3.75;;;7.60;38.00;;;;;;2254604;56;21035;-64
2022/03/22 01:53:08;;;;;;;9.18;4.07;;;7.60;38.20;;;;;;2244923;56;22059;-62
2022/03/22 01:55:34;;;;;;;8.30;3.87;;;7.50;38.00;;;;;;2304947;55;21771;-65
2022/03/22 01:58:01;;;;;;;7.65;4.30;;;7.50;38.00;;;;;;2254324;56;20960;-64
2022/03/22 02:00:27;;;;;;;7.18;3.85;;;7.40;38.00;;;;;;2254677;56;20981;-64
2022/03/22 02:05:57;;;;;;;6.37;3.83;;;7.30;38.10;;;;;;2260399;56;21040;-64
2022/03/22 02:08:28;;;;;;;8.05;4.18;;;7.30;38.30;;;;;;2256331;55;20949;-64
2022/03/22 02:10:55;;;;;;;6.20;3.53;;;7.20;38.30;;;;;;2257079;56;20952;-62
2022/03/22 02:13:22;;;;;;;6.45;3.45;;;7.20;38.40;;;;;;2261701;55;20974;-63
2022/03/22 02:15:50;;;;;;;7.25;4.18;;;7.10;38.50;;;;;;2246212;56;20988;-64
2022/03/22 02:18:16;;;;;;;7.90;3.87;;;7.10;38.60;;;;;;2230968;57;20989;-64
2022/03/22 02:20:43;;;;;;;8.45;4.03;;;7.00;38.70;;;;;;2269830;55;21016;-64
2022/03/22 02:24:05;;;;;;;6.50;3.55;;;7.00;38.80;;;;;;2269166;56;20974;-63
2022/03/22 02:26:31;;;;;;;6.20;3.15;;;6.90;39.10;;;;;;2284644;55;21048;-62
2022/03/22 02:28:58;;;;;;;7.07;3.95;;;6.90;38.80;;;;;;2256190;56;21796;-62
2022/03/22 02:31:28;;;;;;;8.25;3.78;;;6.90;38.90;;;;;;2234522;55;21054;-63
2022/03/22 02:33:55;;;;;;;6.37;3.83;;;6.80;39.00;;;;;;2248254;56;21108;-62
2022/03/22 02:36:22;;;;;;;7.47;3.80;;;6.80;39.00;;;;;;2256133;55;21964;-63
2022/03/22 02:38:48;;;;;;;6.25;3.67;;;6.70;39.00;;;;;;2256302;56;20965;-64
2022/03/22 02:41:19;;;;;;;6.82;3.58;;;6.70;39.00;;;;;;2404833;55;21001;-62
2022/03/22 02:43:48;;;;;;;5.12;2.87;;;6.60;39.10;;;;;;2287327;56;20954;-65
2022/03/22 02:46:14;;;;;;;6.12;3.17;;;6.60;39.10;;;;;;2286841;56;21002;-62
2022/03/22 02:48:42;;;;;;;8.30;3.62;;;6.60;39.20;;;;;;2308543;55;20946;-63
2022/03/22 02:51:08;;;;;;;7.10;3.15;;;6.50;39.20;;;;;;2287474;56;21049;-62
2022/03/22 02:53:34;;;;;;;6.60;3.55;;;6.50;39.30;;;;;;2287269;55;21129;-63
2022/03/22 02:56:01;;;;;;;5.95;3.25;;;6.50;39.40;;;;;;2264315;56;20942;-65
2022/03/22 02:58:29;;;;;;;7.07;3.60;;;6.50;39.40;;;;;;2287976;55;21873;-65
2022/03/22 03:00:59;;;;;;;6.10;3.40;;;6.40;39.40;;;;;;2276918;56;20983;-64
2022/03/22 03:03:26;;;;;;;8.18;3.55;;;6.40;39.50;;;;;;2274851;56;20934;-62
2022/03/22 03:05:55;;;;;;;6.55;2.90;;;6.40;39.50;;;;;;2286780;55;20942;-62
2022/03/22 03:08:26;;;;;;;6.80;3.47;;;6.30;39.50;;;;;;2277659;55;20955;-64
2022/03/22 03:10:53;;;;;;;8.38;3.55;;;6.30;39.60;;;;;;2279758;55;20990;-64
2022/03/22 03:13:21;;;;;;;6.87;3.50;;;6.30;39.70;;;;;;2259597;56;21024;-62
2022/03/22 03:15:50;;;;;;;8.95;3.42;;;6.30;39.70;;;;;;2253816;56;21024;-63
2022/03/22 03:18:18;;;;;;;7.00;3.72;;;6.20;39.70;;;;;;2254217;56;21033;-64
2022/03/22 03:20:47;;;;;;;8.18;3.05;;;6.20;39.80;;;;;;2253104;56;21040;-64
2022/03/22 03:23:13;;;;;;;6.87;3.75;;;6.30;39.90;;;;;;2245747;56;21002;-62
2022/03/22 03:25:40;;;;;;;6.07;3.42;;;6.20;39.80;;;;;;2312394;55;20987;-65
2022/03/22 03:28:06;;;;;;;7.12;3.83;;;6.20;39.90;;;;;;2326762;55;21558;-65
2022/03/22 03:30:33;;;;;;;7.78;4.43;;;6.20;39.90;;;;;;2239951;56;21858;-65
2022/03/22 03:32:59;;;;;;;6.93;3.55;;;6.10;39.90;;;;;;2256227;56;20984;-65
2022/03/22 03:35:26;;;;;;;7.25;3.30;;;6.10;39.90;;;;;;2226036;56;21084;-64
2022/03/22 03:37:53;;;;;;;6.40;3.55;;;6.10;40.00;;;;;;2224243;57;20982;-63
2022/03/22 03:40:20;;;;;;;5.43;3.17;;;6.10;40.00;;;;;;2243686;56;21004;-65
2022/03/22 03:42:46;;;;;;;5.85;3.50;;;6.00;40.00;;;;;;2253718;55;21008;-65
2022/03/22 03:48:05;;;;;;;6.78;3.83;;;6.00;40.10;;;;;;2254768;56;21004;-62
2022/03/22 03:50:32;;;;;;;6.35;3.42;;;5.90;40.00;;;;;;2350729;55;21502;-63
2022/03/22 03:52:58;;;;;;;7.32;3.70;;;5.90;40.10;;;;;;2290322;55;21025;-64
2022/03/22 03:55:27;;;;;;;5.30;3.28;;;5.90;40.10;;;;;;2258267;56;21851;-65
2022/03/22 03:57:54;;;;;;;7.00;3.75;;;5.80;40.10;;;;;;2280245;56;21786;-64
2022/03/22 04:00:20;;;;;;;6.00;3.33;;;5.80;40.10;;;;;;2280201;56;20954;-64
2022/03/22 04:02:47;;;;;;;6.60;3.15;;;5.80;40.10;;;;;;2293091;55;21530;-63
2022/03/22 04:05:13;;;;;;;8.43;3.28;;;5.70;40.10;;;;;;2280576;56;21038;-64
2022/03/22 04:07:40;;;;;;;7.57;3.80;;;5.70;40.10;;;;;;2280572;56;21840;-63
2022/03/22 04:10:08;;;;;;;6.57;3.37;;;5.70;40.20;;;;;;2303325;55;20946;-62
2022/03/22 04:12:44;;;;;;;7.85;4.10;;;5.60;40.20;;;;;;2280548;56;21010;-63
2022/03/22 04:15:10;;;;;;;7.10;3.83;;;5.60;40.50;;;;;;2261903;56;20988;-63
2022/03/22 04:17:38;;;;;;;7.53;4.03;;;5.50;40.30;;;;;;2247137;56;21887;-62
2022/03/22 04:20:07;;;;;;;8.63;4.40;;;5.50;40.40;;;;;;2216975;56;21001;-65
2022/03/22 04:22:43;;;;;;;8.93;3.97;;;5.50;40.50;;;;;;2245493;56;20949;-64
2022/03/22 04:25:09;;;;;;;8.40;4.30;;;5.50;40.60;;;;;;2270020;55;20979;-64
2022/03/22 04:33:08;;;;;;;8.80;4.47;;;5.40;40.60;;;;;;2258727;56;21805;-64
2022/03/22 04:35:35;;;;;;;8.13;4.12;;;5.40;41.20;;;;;;2282552;55;21432;-63
2022/03/22 04:38:01;;;;;;;8.70;4.32;;;5.30;40.60;;;;;;2280147;56;25352;-64
2022/03/22 04:40:29;;;;;;;7.30;3.65;;;5.30;40.60;;;;;;2279839;56;21399;-62
2022/03/22 04:42:55;;;;;;;7.72;3.90;;;5.30;40.70;;;;;;2280089;56;21023;-63
2022/03/22 04:45:22;;;;;;;9.18;4.15;;;5.20;40.70;;;;;;2280282;56;20974;-62
2022/03/22 04:47:49;;;;;;;7.82;4.47;;;5.20;40.70;;;;;;2282860;55;20990;-62
2022/03/22 04:50:16;;;;;;;6.97;3.53;;;5.10;40.70;;;;;;2280736;56;21117;-63
2022/03/22 04:58:11;;;;;;;6.60;3.67;;;5.10;40.80;;;;;;2254365;56;21013;-63
2022/03/22 05:00:40;;;;;;;6.85;3.97;;;5.00;40.90;;;;;;2253724;56;20957;-62
2022/03/22 05:03:08;;;;;;;8.40;4.12;;;5.00;40.90;;;;;;2299864;55;21016;-61
2022/03/22 05:08:20;;;;;;;8.80;4.57;;;5.00;41.10;;;;;;2253676;57;20965;-64
2022/03/22 05:10:47;;;;;;;7.78;4.60;;;4.90;41.50;;;;;;2253116;56;21024;-63
2022/03/22 05:13:18;;;;;;;8.35;4.85;;;4.90;41.10;;;;;;2248418;56;20975;-61
2022/03/22 05:15:44;;;;;;;11.43;5.20;;;4.90;41.80;;;;;;2310680;55;21540;-64
2022/03/22 05:18:13;;;;;;;10.18;4.97;;;4.90;41.20;;;;;;2358930;55;21861;-65
2022/03/22 05:20:39;;;;;;;10.35;4.90;;;4.80;41.20;;;;;;2254007;56;20984;-64
2022/03/22 05:23:05;;;;;;;8.98;4.70;;;4.80;41.30;;;;;;2242483;56;20958;-63
2022/03/22 05:25:31;;;;;;;8.63;4.55;;;4.80;41.40;;;;;;2239742;56;20952;-63
2022/03/22 05:27:59;;;;;;;8.80;4.62;;;4.80;41.40;;;;;;2231795;55;21007;-61
2022/03/22 05:30:25;;;;;;;11.07;5.05;;;4.70;41.40;;;;;;2244100;56;21064;-64
2022/03/22 05:32:51;;;;;;;10.40;5.20;;;4.70;41.50;;;;;;2253134;56;20980;-63
2022/03/22 05:35:18;;;;;;;8.95;4.53;;;4.70;41.60;;;;;;2260115;56;20997;-62
2022/03/22 05:37:44;;;;;;;10.05;4.50;;;4.70;41.60;;;;;;2300864;55;21016;-62
2022/03/22 05:40:12;;;;;;;7.37;4.10;;;4.60;41.60;;;;;;2241443;56;21043;-63
2022/03/22 05:42:42;;;;;;;8.30;4.77;;;4.60;41.70;;;;;;2230967;56;20979;-64
2022/03/22 05:45:11;;;;;;;9.43;4.82;;;4.60;41.70;;;;;;2303764;55;21223;-63
2022/03/22 05:47:38;;;;;;;9.57;4.40;;;4.60;41.80;;;;;;2233037;56;20989;-62
2022/03/22 05:50:06;;;;;;;9.15;5.03;;;4.60;41.80;;;;;;2272218;55;21018;-64
2022/03/22 05:52:34;;;;;;;7.57;3.90;;;4.60;41.90;;;;;;2253402;56;20979;-63
2022/03/22 05:55:00;;;;;;;8.50;4.53;;;4.60;42.00;;;;;;2254930;56;20977;-63
2022/03/22 05:57:26;;;;;;;9.68;5.22;;;4.60;42.00;;;;;;2227053;56;20980;-63
2022/03/22 05:59:54;;;;;;;10.05;4.70;;;4.60;42.10;;;;;;2254999;56;20953;-61
2022/03/22 06:02:21;;;;;;;10.90;5.28;;;4.60;42.10;;;;;;2254939;57;21000;-64
2022/03/22 06:04:48;;;;;;;9.63;4.70;;;4.60;42.20;;;;;;2229321;57;20952;-63
2022/03/22 06:07:14;;;;;;;9.63;5.22;;;4.60;42.20;;;;;;2238046;57;21354;-63
2022/03/22 06:09:44;;;;;;;9.10;5.45;;;4.60;42.30;;;;;;2250196;56;21080;-64
2022/03/22 06:12:13;;;;;;;9.88;5.40;;;4.60;42.40;;;;;;2254622;56;20953;-64
2022/03/22 06:14:39;;;;;;;11.65;5.00;;;4.70;42.50;;;;;;2254226;56;20961;-65
2022/03/22 06:17:05;;;;;;;10.30;5.07;;;4.70;42.60;;;;;;2254574;56;21052;-63
2022/03/22 06:19:32;;;;;;;9.32;4.57;;;4.70;42.60;;;;;;2253850;57;21082;-63
2022/03/22 06:22:01;;;;;;;11.80;5.30;;;4.70;42.70;;;;;;2253197;56;20952;-62
2022/03/22 06:24:27;;;;;;;10.40;4.78;;;4.70;42.70;;;;;;2254487;57;21487;-65
2022/03/22 06:26:55;;;;;;;11.43;4.80;;;4.80;42.80;;;;;;2254180;56;20977;-64
2022/03/22 06:29:21;;;;;;;10.55;5.22;;;4.80;42.80;;;;;;2261282;56;20968;-64
2022/03/22 06:31:49;;;;;;;7.70;4.12;;;4.80;42.90;;;;;;2238835;56;20999;-65
2022/03/22 06:34:16;;;;;;;9.25;4.93;;;4.90;43.10;;;;;;2225141;56;20989;-63
2022/03/22 06:36:42;;;;;;;10.68;5.78;;;4.90;43.20;;;;;;2252693;56;21029;-63
2022/03/22 06:39:09;;;;;;;10.05;5.20;;;5.00;43.40;;;;;;2251434;56;20973;-65
2022/03/22 06:41:36;;;;;;;9.63;4.97;;;5.00;44.00;;;;;;2255463;55;21583;-63
2022/03/22 06:44:04;;;;;;;11.38;6.07;;;5.10;43.50;;;;;;2243723;56;20954;-64
2022/03/22 06:46:32;;;;;;;9.63;4.78;;;5.10;43.70;;;;;;2270096;55;21111;-64
2022/03/22 06:48:59;;;;;;;9.48;4.95;;;5.20;43.80;;;;;;2256839;55;21045;-63
2022/03/22 06:51:25;;;;;;;7.80;4.20;;;5.30;43.80;;;;;;2246480;55;21033;-64
2022/03/22 06:53:52;;;;;;;7.28;3.97;;;5.30;43.80;;;;;;2248769;55;20994;-64
2022/03/22 06:56:19;;;;;;;7.62;4.47;;;5.40;43.90;;;;;;2253864;55;20994;-63
2022/03/22 06:58:46;;;;;;;8.43;4.62;;;5.50;44.00;;;;;;2227311;57;20948;-65
2022/03/22 07:01:12;;;;;;;9.73;4.70;;;5.60;44.10;;;;;;2254337;57;20996;-62
2022/03/22 07:03:42;;;;;;;8.95;4.87;;;5.70;44.30;;;;;;2254185;57;21529;-63
2022/03/22 07:06:09;;;;;;;9.68;4.37;;;5.80;44.30;;;;;;2284262;55;21004;-62
2022/03/22 07:08:37;;;;;;;7.07;4.20;;;5.90;44.40;;;;;;2254124;56;21352;-64
2022/03/22 07:13:49;;;;;;;6.72;3.22;;;6.00;44.50;;;;;;2253627;56;21839;-64
2022/03/22 07:16:15;;;;;;;6.78;3.58;;;6.20;44.60;;;;;;2258903;56;21447;-65
2022/03/22 07:18:42;;;;;;;7.45;3.42;;;6.30;44.60;;;;;;2253751;56;20964;-63
2022/03/22 07:21:08;;;;;;;8.93;3.33;;;6.40;44.60;;;;;;2241776;56;20962;-64
2022/03/22 07:23:35;;;;;;;6.75;3.33;;;6.50;44.60;;;;;;2258486;55;21064;-63
2022/03/22 07:26:02;;;;;;;7.75;4.03;;;6.60;44.60;;;;;;2254210;56;21825;-62
2022/03/22 07:28:28;;;;;;;8.38;4.30;;;6.70;45.20;;;;;;2272936;55;21049;-63
2022/03/22 07:30:57;;;;;;;7.57;4.18;;;6.80;44.70;;;;;;2227716;56;20966;-65
2022/03/22 07:33:23;;;;;;;7.22;4.40;;;6.90;44.80;;;;;;2248164;56;21068;-63
2022/03/22 07:35:50;;;;;;;12.98;3.83;;;7.10;45.00;;;;;;2220538;56;21104;-65
2022/03/22 07:38:17;;;;;;;9.45;4.18;;;7.20;45.00;;;;;;2258313;55;21024;-64
2022/03/22 07:40:43;;;;;;;8.15;4.65;;;7.30;45.10;;;;;;2255314;56;21079;-64
2022/03/22 07:43:10;;;;;;;7.72;4.47;;;7.50;45.20;;;;;;2253815;56;21815;-63
2022/03/22 07:45:37;;;;;;;8.68;4.50;;;7.60;45.20;;;;;;2253546;55;21062;-65
2022/03/22 07:48:05;;;;;;;9.07;5.65;;;7.70;45.20;;;;;;2269299;56;21055;-63
2022/03/22 07:53:17;;;;;;;12.85;7.97;;;8.00;45.50;;;;;;2229205;56;21585;-63
2022/03/22 07:55:43;;;;;;;13.43;7.78;;;8.20;45.60;;;;;;2235438;56;21038;-65
2022/03/22 07:58:11;;;;;;;10.55;6.70;;;8.40;45.70;;;;;;2218059;56;20964;-64
2022/03/22 08:00:38;;;;;;;11.20;6.82;;;8.60;45.80;;;;;;2249947;56;20986;-65
2022/03/22 08:03:08;;;;;;;12.50;6.65;;;8.70;45.80;;;;;;2256879;56;21048;-63
2022/03/22 08:05:38;;;;;;;11.55;6.78;;;8.90;45.80;;;;;;2238379;56;20948;-65
2022/03/22 08:08:08;;;;;;;12.48;7.70;;;9.10;45.90;;;;;;2253886;56;21045;-65
2022/03/22 08:10:52;;;;;;;14.68;8.20;;;9.40;46.10;;;;;;2248585;55;21059;-64
2022/03/22 08:13:22;;;;;;;14.13;8.95;;;9.60;46.30;;;;;;2267979;56;20977;-63
2022/03/22 08:15:50;;;;;;;15.27;8.90;;;9.90;46.50;;;;;;2302264;55;21491;-66
2022/03/22 08:18:17;;;;;;;15.77;9.93;;;10.20;45.80;;;;;;2329156;55;21093;-65
2022/03/22 08:20:43;;;;;;;15.25;8.80;;;10.50;45.60;;;;;;2274770;56;21120;-64
2022/03/22 08:23:11;;;;;;;16.40;10.15;;;10.80;45.60;;;;;;2318659;55;21468;-64
2022/03/22 08:25:43;;;;;;;16.10;9.65;;;11.10;45.70;;;;;;2249860;56;21075;-65
2022/03/22 08:28:14;;;;;;;15.52;10.07;;;11.40;45.50;;;;;;2240602;57;20980;-64
2022/03/22 08:30:42;;;;;;;16.55;8.90;;;11.80;45.60;;;;;;2258842;56;21004;-64
2022/03/22 08:33:12;;;;;;;14.82;8.98;;;12.10;45.40;;;;;;2260511;55;21078;-64
2022/03/22 08:35:46;;;;;;;12.25;8.20;;;12.40;45.40;;;;;;2259432;56;20992;-66
2022/03/22 08:38:19;;;;;;;13.60;7.93;;;12.90;45.30;;;;;;2313277;55;21006;-64
2022/03/22 08:40:46;;;;;;;11.80;8.00;;;13.30;45.30;;;;;;2217715;56;21024;-65
2022/03/22 08:43:40;;;;;;;12.73;7.60;;;13.60;45.20;;;;;;2232331;57;20980;-64
2022/03/22 08:46:07;;;;;;;10.57;6.62;;;14.00;45.30;;;;;;2248511;56;21061;-65
2022/03/22 08:48:37;;;;;;;12.02;7.68;;;14.50;45.30;;;;;;2214134;56;20986;-64
2022/03/22 08:51:05;;;;;;;9.48;6.57;;;14.90;45.00;;;;;;2250187;56;20960;-65
2022/03/22 08:53:34;;;;;;;10.07;6.07;;;15.30;44.90;;;;;;2248913;56;21009;-66
2022/03/22 08:56:03;;;;;;;10.40;6.68;;;15.60;44.60;;;;;;2256422;55;21057;-66
2022/03/22 08:58:30;;;;;;;10.40;7.10;;;16.00;44.30;;;;;;2253135;55;21036;-63
2022/03/22 09:00:58;;;;;;;10.77;6.45;;;16.40;44.20;;;;;;2260826;56;20955;-64
2022/03/22 09:03:28;;;;;;;9.70;6.28;;;16.70;43.80;;;;;;2246838;56;21145;-64
2022/03/22 09:06:12;;;;;;;10.73;6.97;;;17.00;43.50;;;;;;2267433;55;20997;-64
2022/03/22 09:08:40;;;;;;;13.60;7.53;;;17.30;42.90;;;;;;2233605;56;20983;-65
2022/03/22 09:11:09;;;;;;;10.02;6.78;;;17.60;42.40;;;;;;2252259;55;21922;-66
2022/03/22 09:13:37;;;;;;;10.68;6.18;;;17.80;42.40;;;;;;2239985;57;21023;-64
2022/03/22 09:16:09;;;;;;;10.45;5.65;;;18.10;42.50;;;;;;2238624;56;21842;-64
2022/03/22 09:18:39;;;;;;;11.30;6.07;;;18.40;43.10;;;;;;2253185;56;21807;-65
2022/03/22 09:21:17;;;;;;;8.23;5.57;;;18.80;42.50;;;;;;2256849;55;20935;-67
2022/03/22 09:23:47;;;;;;;10.40;6.55;;;19.10;42.60;;;;;;2253769;56;21803;-65
2022/03/22 09:26:19;;;;;;;8.63;5.97;;;19.50;41.60;;;;;;2237237;57;21056;-66
2022/03/22 09:28:52;;;;;;;10.73;6.80;;;19.80;41.70;;;;;;2266835;55;21072;-66
2022/03/22 09:31:20;;;;;;;8.88;6.25;;;20.20;41.30;;;;;;2254263;56;20996;-67
2022/03/22 09:33:48;;;;;;;8.98;5.57;;;20.50;41.20;;;;;;2254004;56;21001;-65
2022/03/22 09:36:15;;;;;;;9.43;5.75;;;20.80;41.20;;;;;;2254098;57;21851;-66
2022/03/22 09:38:48;;;;;;;7.43;5.50;;;21.10;40.80;;;;;;2254775;57;21051;-66
2022/03/22 09:41:14;;;;;;;10.20;6.60;;;21.40;40.30;;;;;;2255322;57;20980;-65
2022/03/22 09:43:47;;;;;;;9.27;5.62;;;21.60;39.30;;;;;;2251434;56;21405;-67
2022/03/22 09:46:18;;;;;;;9.82;5.95;;;21.70;38.50;;;;;;2295926;55;21067;-65
2022/03/22 09:48:45;;;;;;;11.12;6.22;;;21.80;38.90;;;;;;2253916;56;21037;-66
2022/03/22 09:54:00;;;;;;;10.63;5.70;;;22.00;37.80;;;;;;2252967;56;20988;-65
2022/03/22 09:56:31;;;;;;;7.85;5.30;;;22.20;38.10;;;;;;2234086;56;20983;-67
2022/03/22 09:58:58;;;;;;;8.25;5.47;;;22.30;38.20;;;;;;2253480;56;21004;-66
2022/03/22 10:01:25;;;;;;;9.20;5.65;;;22.50;38.20;;;;;;2254663;55;21092;-65
2022/03/22 10:04:13;;;;;;;10.02;6.70;;;22.60;37.70;;;;;;2275882;55;21037;-65
2022/03/22 10:06:54;;;;;;;10.18;6.28;;;22.80;36.20;;;;;;2251183;56;20987;-66
2022/03/22 10:10:05;;;;;;;11.93;5.85;;;22.80;36.00;;;;;;2258368;55;21018;-66
2022/03/22 10:12:35;;;;;;;9.85;5.72;;;22.80;35.30;;;;;;2255245;56;21045;-65
2022/03/22 10:15:27;;;;;;;11.52;6.93;;;22.80;35.70;;;;;;2230102;56;21105;-66
2022/03/22 10:18:00;;;;;;;8.57;5.93;;;22.70;35.10;;;;;;2250192;56;21014;-65
2022/03/22 10:20:27;;;;;;;12.50;6.60;;;22.70;34.80;;;;;;2216544;57;21021;-66
2022/03/22 10:22:56;;;;;;;10.25;5.97;;;22.60;34.90;;;;;;2258025;56;21607;-65
2022/03/22 10:25:23;;;;;;;9.52;6.28;;;22.50;34.70;;;;;;2258286;56;21013;-65
2022/03/22 10:27:53;;;;;;;10.60;6.57;;;22.50;34.70;;;;;;2262457;55;21008;-65
2022/03/22 10:30:31;;;;;;;12.00;6.30;;;22.40;34.40;;;;;;2258356;56;21076;-66
2022/03/22 10:32:58;;;;;;;9.77;6.10;;;22.40;34.40;;;;;;2252203;57;21040;-66
2022/03/22 10:35:34;;;;;;;12.35;6.15;;;22.40;34.50;;;;;;2246149;56;21043;-66
2022/03/22 10:38:02;;;;;;;9.88;6.85;;;22.50;34.00;;;;;;2248934;56;21016;-65
2022/03/22 10:40:42;;;;;;;10.52;6.53;;;22.50;34.30;;;;;;2244135;56;21440;-65
2022/03/22 10:43:22;;;;;;;10.50;6.15;;;22.50;33.80;;;;;;2261388;56;21104;-66
2022/03/22 10:45:53;;;;;;;10.48;6.18;;;22.50;33.80;;;;;;2291760;56;20993;-67
2022/03/22 10:48:25;;;;;;;11.45;6.55;;;22.50;33.80;;;;;;2256396;56;21077;-65
2022/03/22 10:50:52;;;;;;;8.13;5.20;;;22.60;33.60;;;;;;2259964;55;21029;-65
2022/03/22 10:53:20;;;;;;;9.68;5.68;;;22.60;33.50;;;;;;2235193;56;20947;-66
2022/03/22 10:55:47;;;;;;;10.93;6.32;;;22.60;33.20;;;;;;2215794;57;21077;-65
2022/03/22 10:58:14;;;;;;;8.95;6.12;;;22.70;33.00;;;;;;2233658;56;21510;-65
2022/03/22 11:00:44;;;;;;;10.82;6.32;;;22.60;32.70;;;;;;2221504;57;21786;-66
2022/03/22 11:03:11;;;;;;;9.93;6.75;;;22.60;32.40;;;;;;2266934;56;21036;-66
2022/03/22 11:05:43;;;;;;;9.38;5.45;;;22.60;32.50;;;;;;2256336;56;21057;-66
2022/03/22 11:08:10;;;;;;;8.05;5.60;;;22.60;32.50;;;;;;2252256;56;20972;-66
2022/03/22 11:10:37;;;;;;;10.50;6.55;;;22.60;32.50;;;;;;2254878;55;21431;-66
2022/03/22 11:13:06;;;;;;;9.75;5.97;;;22.60;32.80;;;;;;2267331;56;20969;-65
2022/03/22 11:15:36;;;;;;;10.55;6.47;;;22.60;32.40;;;;;;2258485;56;20977;-66
2022/03/22 11:18:03;;;;;;;11.73;6.87;;;22.70;32.10;;;;;;2257342;56;21016;-65
2022/03/22 11:20:29;;;;;;;8.82;6.00;;;22.70;31.70;;;;;;2252697;56;21604;-65
2022/03/22 11:22:56;;;;;;;10.10;5.90;;;22.70;31.80;;;;;;2230503;55;21055;-66
2022/03/22 11:25:36;;;;;;;9.40;6.35;;;22.70;31.90;;;;;;2229963;56;21066;-66
2022/03/22 11:28:08;;;;;;;9.65;5.68;;;22.80;31.50;;;;;;2233358;56;20976;-66
2022/03/22 11:30:36;;;;;;;10.18;6.05;;;22.80;31.70;;;;;;2293438;55;21110;-67
2022/03/22 11:35:57;;;;;;;9.93;5.93;;;22.80;31.40;;;;;;2255460;56;21138;-67
2022/03/22 11:38:49;;;;;;;9.88;5.65;;;22.90;31.30;;;;;;2240933;56;21105;-66
2022/03/22 11:44:47;;;;;;;9.25;5.50;;;23.00;31.20;;;;;;2230990;57;20993;-66
2022/03/22 11:47:25;;;;;;;8.80;5.20;;;23.10;31.40;;;;;;2239139;56;21044;-65
2022/03/22 11:50:03;;;;;;;11.23;5.87;;;23.20;31.10;;;;;;2254527;56;20981;-66
2022/03/22 11:52:44;;;;;;;9.75;5.68;;;23.20;30.80;;;;;;2251792;55;20930;-66
2022/03/22 11:55:22;;;;;;;11.30;6.00;;;23.20;30.40;;;;;;2261549;56;21032;-66
2022/03/22 11:58:00;;;;;;;10.98;5.82;;;23.30;30.80;;;;;;2231693;56;21843;-68
2022/03/22 12:00:46;;;;;;;7.95;5.05;;;23.30;30.40;;;;;;2245389;56;20992;-67
2022/03/22 12:03:31;;;;;;;7.90;5.18;;;23.30;30.00;;;;;;2256986;56;21092;-66
2022/03/22 12:06:08;;;;;;;8.90;5.60;;;23.40;30.20;;;;;;2258292;56;21065;-66
2022/03/22 12:08:42;;;;;;;12.63;5.00;;;23.40;30.10;;;;;;2251028;55;21026;-66
2022/03/22 12:11:12;;;;;;;8.35;5.35;;;23.40;30.00;;;;;;2295337;55;20980;-67
2022/03/22 12:13:44;;;;;;;7.93;5.25;;;23.40;29.80;;;;;;2257771;56;21063;-66
2022/03/22 12:16:10;;;;;;;12.80;5.15;;;23.40;29.80;;;;;;2255241;56;21092;-68
2022/03/22 12:18:39;;;;;;;10.75;5.68;;;23.40;29.90;;;;;;2236732;56;21033;-66
2022/03/22 12:21:15;;;;;;;7.80;4.90;;;23.40;29.80;;;;;;2236637;56;21032;-65
2022/03/22 12:23:45;;;;;;;7.20;4.82;;;23.50;29.80;;;;;;2233281;56;21035;-66
2022/03/22 12:26:11;;;;;;;7.05;4.55;;;23.50;29.80;;;;;;2239756;56;21363;-67
2022/03/22 12:28:48;;;;;;;8.35;4.82;;;23.60;29.70;;;;;;2251886;57;21004;-67
2022/03/22 12:31:15;;;;;;;6.93;3.87;;;23.60;29.10;;;;;;2257149;56;21016;-66
2022/03/22 12:33:44;;;;;;;6.55;3.72;;;23.60;29.30;;;;;;2256490;56;20957;-66
2022/03/22 12:36:11;;;;;;;7.90;4.65;;;23.70;29.30;;;;;;2237149;56;21051;-67
2022/03/22 12:38:40;;;;;;;7.93;5.10;;;23.80;29.30;;;;;;2248488;55;21698;-66
2022/03/22 12:41:06;;;;;;;8.50;5.30;;;23.80;29.10;;;;;;2250947;56;21816;-67
2022/03/22 12:43:32;;;;;;;10.23;5.95;;;23.80;29.20;;;;;;2249315;56;20968;-67
2022/03/22 12:46:08;;;;;;;10.85;5.53;;;23.90;29.10;;;;;;2253030;56;20996;-66
2022/03/22 12:48:34;;;;;;;8.05;4.82;;;23.90;28.90;;;;;;2249037;56;21048;-68
2022/03/22 12:51:04;;;;;;;14.25;5.50;;;24.00;28.90;;;;;;2252251;56;21030;-66
2022/03/22 12:53:33;;;;;;;11.90;5.45;;;24.00;28.90;;;;;;2253919;55;20981;-67
2022/03/22 12:56:00;;;;;;;8.02;5.00;;;24.00;28.60;;;;;;2256426;55;21078;-66
2022/03/22 12:58:29;;;;;;;9.25;5.10;;;24.00;28.60;;;;;;2256404;56;21017;-66
2022/03/22 13:00:58;;;;;;;7.50;4.72;;;24.10;28.70;;;;;;2267376;56;21016;-67
2022/03/22 13:03:27;;;;;;;9.77;5.18;;;24.10;28.60;;;;;;2246054;56;20972;-68
2022/03/22 13:05:56;;;;;;;7.90;4.90;;;24.10;28.30;;;;;;2301870;55;20965;-68
2022/03/22 13:08:24;;;;;;;8.95;3.90;;;24.10;28.00;;;;;;2257283;57;21349;-66
2022/03/22 13:16:29;;;;;;;7.10;3.70;;;24.20;28.10;;;;;;2252847;56;21113;-66
2022/03/22 13:18:59;;;;;;;7.90;4.30;;;24.20;28.00;;;;;;2241817;55;21853;-65
2022/03/22 13:21:30;;;;;;;6.90;4.12;;;24.20;27.60;;;;;;2252133;56;20964;-66
2022/03/22 13:24:11;;;;;;;7.37;4.35;;;24.20;27.70;;;;;;2277892;55;20981;-67
2022/03/22 13:26:51;;;;;;;7.87;4.20;;;24.20;27.40;;;;;;2378340;55;21053;-66
2022/03/22 13:29:23;;;;;;;7.03;4.10;;;24.20;27.50;;;;;;2241313;55;21035;-66
2022/03/22 13:32:09;;;;;;;10.05;4.85;;;24.20;27.80;;;;;;2255940;56;21614;-67
2022/03/22 13:34:38;;;;;;;9.43;4.47;;;24.20;27.30;;;;;;2256187;56;20957;-65
2022/03/22 13:37:11;;;;;;;7.12;4.57;;;24.20;27.80;;;;;;2250223;56;21745;-66
2022/03/22 13:39:42;;;;;;;8.43;5.15;;;24.20;27.50;;;;;;2238955;56;20984;-66
2022/03/22 13:42:17;;;;;;;10.32;4.45;;;24.30;27.80;;;;;;2255879;56;21096;-65
2022/03/22 13:44:45;;;;;;;8.95;4.05;;;24.30;27.30;;;;;;2255005;56;21021;-67